sensor_id;sensor_type;location;lat;lon;timestamp;P1;durP1;ratioP1;P2;durP2;ratioP2
12435;SDS011;6282;51.440;6.938;2023-05-13T00:02:07;9.20;;;8.25;;
12435;SDS011;6282;51.440;6.938;2023-05-13T00:04:34;13.07;;;9.30;;
12435;SDS011;6282;51.440;6.938;2023-05-13T00:07:01;9.32;;;8.30;;
12435;SDS011;6282;51.440;6.938;2023-05-13T00:09:29;12.00;;;9.18;;
12435;SDS011;6282;51.440;6.938;2023-05-13T00:11:56;9.40;;;8.38;;
12435;SDS011;6282;51.440;6.938;2023-05-13T00:14:23;11.10;;;8.07;;
12435;SDS011;6282;51.440;6.938;2023-05-13T00:16:49;11.60;;;8.25;;
12435;SDS011;6282;51.440;6.938;2023-05-13T00:19:16;9.48;;;8.30;;
12435;SDS011;6282;51.440;6.938;2023-05-13T00:21:43;10.45;;;8.52;;
12435;SDS011;6282;51.440;6.938;2023-05-13T00:24:10;10.02;;;8.68;;
12435;SDS011;6282;51.440;6.938;2023-05-13T00:26:38;8.60;;;7.78;;
12435;SDS011;6282;51.440;6.938;2023-05-13T00:29:05;10.43;;;8.98;;
12435;SDS011;6282;51.440;6.938;2023-05-13T00:31:32;11.15;;;8.60;;
12435;SDS011;6282;51.440;6.938;2023-05-13T00:33:59;11.20;;;8.40;;
12435;SDS011;6282;51.440;6.938;2023-05-13T00:36:27;10.77;;;9.55;;
12435;SDS011;6282;51.440;6.938;2023-05-13T00:38:53;11.40;;;9.20;;
12435;SDS011;6282;51.440;6.938;2023-05-13T00:41:21;11.35;;;10.10;;
12435;SDS011;6282;51.440;6.938;2023-05-13T00:43:49;10.57;;;9.48;;
12435;SDS011;6282;51.440;6.938;2023-05-13T00:46:19;11.98;;;9.65;;
12435;SDS011;6282;51.440;6.938;2023-05-13T00:48:46;9.55;;;8.43;;
12435;SDS011;6282;51.440;6.938;2023-05-13T00:51:14;10.52;;;8.73;;
12435;SDS011;6282;51.440;6.938;2023-05-13T00:53:41;11.70;;;9.57;;
12435;SDS011;6282;51.440;6.938;2023-05-13T00:56:08;10.75;;;9.63;;
12435;SDS011;6282;51.440;6.938;2023-05-13T00:58:35;11.57;;;9.90;;
12435;SDS011;6282;51.440;6.938;2023-05-13T01:01:07;12.45;;;10.10;;
12435;SDS011;6282;51.440;6.938;2023-05-13T01:03:41;13.50;;;10.68;;
12435;SDS011;6282;51.440;6.938;2023-05-13T01:06:14;12.77;;;10.82;;
12435;SDS011;6282;51.440;6.938;2023-05-13T01:08:46;11.05;;;9.82;;
12435;SDS011;6282;51.440;6.938;2023-05-13T01:11:20;15.75;;;11.52;;
12435;SDS011;6282;51.440;6.938;2023-05-13T01:13:51;12.82;;;10.75;;
12435;SDS011;6282;51.440;6.938;2023-05-13T01:16:38;14.35;;;11.13;;
12435;SDS011;6282;51.440;6.938;2023-05-13T01:19:13;11.85;;;10.00;;
12435;SDS011;6282;51.440;6.938;2023-05-13T01:22:03;11.95;;;10.00;;
12435;SDS011;6282;51.440;6.938;2023-05-13T01:24:30;12.02;;;10.38;;
12435;SDS011;6282;51.440;6.938;2023-05-13T01:26:57;13.07;;;10.55;;
12435;SDS011;6282;51.440;6.938;2023-05-13T01:29:24;11.35;;;9.60;;
12435;SDS011;6282;51.440;6.938;2023-05-13T01:31:51;11.02;;;9.90;;
12435;SDS011;6282;51.440;6.938;2023-05-13T01:34:20;13.25;;;10.85;;
12435;SDS011;6282;51.440;6.938;2023-05-13T01:36:48;12.27;;;10.98;;
12435;SDS011;6282;51.440;6.938;2023-05-13T01:42:38;13.15;;;10.32;;
12435;SDS011;6282;51.440;6.938;2023-05-13T01:45:06;12.45;;;10.73;;
12435;SDS011;6282;51.440;6.938;2023-05-13T01:47:33;12.15;;;10.23;;
12435;SDS011;6282;51.440;6.938;2023-05-13T01:50:00;15.63;;;11.57;;
12435;SDS011;6282;51.440;6.938;2023-05-13T01:52:27;14.98;;;10.77;;
12435;SDS011;6282;51.440;6.938;2023-05-13T01:54:54;12.13;;;10.75;;
12435;SDS011;6282;51.440;6.938;2023-05-13T01:57:20;12.38;;;10.85;;
12435;SDS011;6282;51.440;6.938;2023-05-13T01:59:49;12.93;;;10.60;;
12435;SDS011;6282;51.440;6.938;2023-05-13T02:02:17;13.55;;;11.18;;
12435;SDS011;6282;51.440;6.938;2023-05-13T02:04:43;12.80;;;10.90;;
12435;SDS011;6282;51.440;6.938;2023-05-13T02:07:10;12.20;;;10.45;;
12435;SDS011;6282;51.440;6.938;2023-05-13T02:09:37;13.88;;;9.75;;
12435;SDS011;6282;51.440;6.938;2023-05-13T02:12:04;11.52;;;10.32;;
12435;SDS011;6282;51.440;6.938;2023-05-13T02:14:32;11.05;;;9.50;;
12435;SDS011;6282;51.440;6.938;2023-05-13T02:17:00;11.32;;;10.15;;
12435;SDS011;6282;51.440;6.938;2023-05-13T02:19:27;11.95;;;9.70;;
12435;SDS011;6282;51.440;6.938;2023-05-13T02:21:54;11.43;;;10.30;;
12435;SDS011;6282;51.440;6.938;2023-05-13T02:24:21;10.82;;;9.73;;
12435;SDS011;6282;51.440;6.938;2023-05-13T02:26:48;12.18;;;9.27;;
12435;SDS011;6282;51.440;6.938;2023-05-13T02:29:14;10.68;;;9.57;;
12435;SDS011;6282;51.440;6.938;2023-05-13T02:31:41;13.15;;;8.82;;
12435;SDS011;6282;51.440;6.938;2023-05-13T02:34:09;11.95;;;9.52;;
12435;SDS011;6282;51.440;6.938;2023-05-13T02:36:36;10.25;;;8.63;;
12435;SDS011;6282;51.440;6.938;2023-05-13T02:39:03;12.13;;;9.05;;
12435;SDS011;6282;51.440;6.938;2023-05-13T02:41:30;10.10;;;9.10;;
12435;SDS011;6282;51.440;6.938;2023-05-13T02:43:57;9.95;;;8.93;;
12435;SDS011;6282;51.440;6.938;2023-05-13T02:46:24;10.85;;;9.27;;
12435;SDS011;6282;51.440;6.938;2023-05-13T02:48:51;11.35;;;9.38;;
12435;SDS011;6282;51.440;6.938;2023-05-13T02:51:19;11.15;;;9.35;;
12435;SDS011;6282;51.440;6.938;2023-05-13T02:53:46;10.73;;;9.15;;
12435;SDS011;6282;51.440;6.938;2023-05-13T02:56:12;13.38;;;10.13;;
12435;SDS011;6282;51.440;6.938;2023-05-13T02:58:40;10.80;;;9.40;;
12435;SDS011;6282;51.440;6.938;2023-05-13T03:01:07;10.23;;;9.15;;
12435;SDS011;6282;51.440;6.938;2023-05-13T03:03:35;12.38;;;9.88;;
12435;SDS011;6282;51.440;6.938;2023-05-13T03:06:01;10.20;;;9.18;;
12435;SDS011;6282;51.440;6.938;2023-05-13T03:08:30;11.35;;;9.20;;
12435;SDS011;6282;51.440;6.938;2023-05-13T03:10:56;11.93;;;10.18;;
12435;SDS011;6282;51.440;6.938;2023-05-13T03:13:23;11.98;;;9.88;;
12435;SDS011;6282;51.440;6.938;2023-05-13T03:15:50;10.75;;;9.63;;
12435;SDS011;6282;51.440;6.938;2023-05-13T03:18:17;13.05;;;10.50;;
12435;SDS011;6282;51.440;6.938;2023-05-13T03:20:44;11.48;;;9.98;;
12435;SDS011;6282;51.440;6.938;2023-05-13T03:23:11;11.75;;;10.07;;
12435;SDS011;6282;51.440;6.938;2023-05-13T03:25:39;11.75;;;10.18;;
12435;SDS011;6282;51.440;6.938;2023-05-13T03:28:07;14.45;;;10.63;;
12435;SDS011;6282;51.440;6.938;2023-05-13T03:30:34;15.85;;;10.32;;
12435;SDS011;6282;51.440;6.938;2023-05-13T03:33:00;12.20;;;10.10;;
12435;SDS011;6282;51.440;6.938;2023-05-13T03:35:27;12.60;;;10.15;;
12435;SDS011;6282;51.440;6.938;2023-05-13T03:37:54;11.50;;;10.30;;
12435;SDS011;6282;51.440;6.938;2023-05-13T03:40:21;13.18;;;11.18;;
12435;SDS011;6282;51.440;6.938;2023-05-13T03:42:49;12.50;;;10.55;;
12435;SDS011;6282;51.440;6.938;2023-05-13T03:45:16;11.77;;;10.07;;
12435;SDS011;6282;51.440;6.938;2023-05-13T03:47:43;11.90;;;10.45;;
12435;SDS011;6282;51.440;6.938;2023-05-13T03:50:10;12.95;;;10.65;;
12435;SDS011;6282;51.440;6.938;2023-05-13T03:52:37;13.75;;;11.38;;
12435;SDS011;6282;51.440;6.938;2023-05-13T03:55:04;11.73;;;9.90;;
12435;SDS011;6282;51.440;6.938;2023-05-13T03:57:31;11.50;;;9.90;;
12435;SDS011;6282;51.440;6.938;2023-05-13T03:59:59;13.38;;;11.02;;
12435;SDS011;6282;51.440;6.938;2023-05-13T04:02:26;13.05;;;10.48;;
12435;SDS011;6282;51.440;6.938;2023-05-13T04:04:52;11.95;;;10.00;;
12435;SDS011;6282;51.440;6.938;2023-05-13T04:07:19;11.23;;;9.98;;
12435;SDS011;6282;51.440;6.938;2023-05-13T04:09:46;11.50;;;10.25;;
12435;SDS011;6282;51.440;6.938;2023-05-13T04:12:13;10.50;;;9.45;;
12435;SDS011;6282;51.440;6.938;2023-05-13T04:14:42;11.65;;;9.93;;
12435;SDS011;6282;51.440;6.938;2023-05-13T04:17:10;12.18;;;10.05;;
12435;SDS011;6282;51.440;6.938;2023-05-13T04:19:37;11.68;;;9.70;;
12435;SDS011;6282;51.440;6.938;2023-05-13T04:22:03;10.18;;;9.00;;
12435;SDS011;6282;51.440;6.938;2023-05-13T04:24:30;10.35;;;9.20;;
12435;SDS011;6282;51.440;6.938;2023-05-13T04:26:57;10.98;;;8.40;;
12435;SDS011;6282;51.440;6.938;2023-05-13T04:29:24;11.88;;;9.65;;
12435;SDS011;6282;51.440;6.938;2023-05-13T04:31:51;11.40;;;9.98;;
12435;SDS011;6282;51.440;6.938;2023-05-13T04:34:19;11.43;;;9.20;;
12435;SDS011;6282;51.440;6.938;2023-05-13T04:36:46;10.50;;;9.40;;
12435;SDS011;6282;51.440;6.938;2023-05-13T04:39:12;12.10;;;9.82;;
12435;SDS011;6282;51.440;6.938;2023-05-13T04:41:39;10.95;;;9.77;;
12435;SDS011;6282;51.440;6.938;2023-05-13T04:44:06;11.05;;;9.85;;
12435;SDS011;6282;51.440;6.938;2023-05-13T04:46:33;11.85;;;10.02;;
12435;SDS011;6282;51.440;6.938;2023-05-13T04:49:02;12.73;;;9.60;;
12435;SDS011;6282;51.440;6.938;2023-05-13T04:51:30;10.82;;;9.73;;
12435;SDS011;6282;51.440;6.938;2023-05-13T04:53:57;10.63;;;9.50;;
12435;SDS011;6282;51.440;6.938;2023-05-13T04:56:24;13.10;;;9.23;;
12435;SDS011;6282;51.440;6.938;2023-05-13T04:58:51;11.25;;;9.27;;
12435;SDS011;6282;51.440;6.938;2023-05-13T05:01:17;10.82;;;9.15;;
12435;SDS011;6282;51.440;6.938;2023-05-13T05:03:44;11.40;;;9.43;;
12435;SDS011;6282;51.440;6.938;2023-05-13T05:06:11;11.00;;;9.55;;
12435;SDS011;6282;51.440;6.938;2023-05-13T05:08:39;10.52;;;9.38;;
12435;SDS011;6282;51.440;6.938;2023-05-13T05:11:06;9.88;;;8.75;;
12435;SDS011;6282;51.440;6.938;2023-05-13T05:13:34;10.48;;;9.23;;
12435;SDS011;6282;51.440;6.938;2023-05-13T05:16:00;11.23;;;9.25;;
12435;SDS011;6282;51.440;6.938;2023-05-13T05:18:27;10.63;;;9.52;;
12435;SDS011;6282;51.440;6.938;2023-05-13T05:20:54;9.38;;;8.40;;
12435;SDS011;6282;51.440;6.938;2023-05-13T05:23:21;10.38;;;9.25;;
12435;SDS011;6282;51.440;6.938;2023-05-13T05:25:49;10.50;;;9.38;;
12435;SDS011;6282;51.440;6.938;2023-05-13T05:28:16;9.85;;;8.82;;
12435;SDS011;6282;51.440;6.938;2023-05-13T05:30:42;11.35;;;9.38;;
12435;SDS011;6282;51.440;6.938;2023-05-13T05:33:09;10.38;;;9.35;;
12435;SDS011;6282;51.440;6.938;2023-05-13T05:35:36;11.77;;;10.25;;
12435;SDS011;6282;51.440;6.938;2023-05-13T05:38:03;11.45;;;9.68;;
12435;SDS011;6282;51.440;6.938;2023-05-13T05:40:30;11.55;;;9.70;;
12435;SDS011;6282;51.440;6.938;2023-05-13T05:42:58;11.48;;;9.95;;
12435;SDS011;6282;51.440;6.938;2023-05-13T05:45:25;11.20;;;9.90;;
12435;SDS011;6282;51.440;6.938;2023-05-13T05:47:52;12.55;;;10.57;;
12435;SDS011;6282;51.440;6.938;2023-05-13T05:50:19;10.95;;;9.85;;
12435;SDS011;6282;51.440;6.938;2023-05-13T05:52:46;11.80;;;10.20;;
12435;SDS011;6282;51.440;6.938;2023-05-13T05:55:13;10.70;;;9.60;;
12435;SDS011;6282;51.440;6.938;2023-05-13T05:57:40;12.77;;;9.05;;
12435;SDS011;6282;51.440;6.938;2023-05-13T06:00:09;12.75;;;9.27;;
12435;SDS011;6282;51.440;6.938;2023-05-13T06:02:36;10.68;;;9.35;;
12435;SDS011;6282;51.440;6.938;2023-05-13T06:05:03;9.43;;;8.13;;
12435;SDS011;6282;51.440;6.938;2023-05-13T06:07:31;9.25;;;8.35;;
12435;SDS011;6282;51.440;6.938;2023-05-13T06:09:58;8.65;;;7.72;;
12435;SDS011;6282;51.440;6.938;2023-05-13T06:12:24;8.40;;;7.50;;
12435;SDS011;6282;51.440;6.938;2023-05-13T06:14:51;9.70;;;7.63;;
12435;SDS011;6282;51.440;6.938;2023-05-13T06:17:19;8.50;;;7.28;;
12435;SDS011;6282;51.440;6.938;2023-05-13T06:19:46;7.20;;;6.50;;
12435;SDS011;6282;51.440;6.938;2023-05-13T06:22:13;8.30;;;7.50;;
12435;SDS011;6282;51.440;6.938;2023-05-13T06:24:40;7.90;;;6.72;;
12435;SDS011;6282;51.440;6.938;2023-05-13T06:27:08;7.10;;;6.40;;
12435;SDS011;6282;51.440;6.938;2023-05-13T06:29:36;7.82;;;7.03;;
12435;SDS011;6282;51.440;6.938;2023-05-13T06:32:03;7.72;;;6.95;;
12435;SDS011;6282;51.440;6.938;2023-05-13T06:34:31;7.57;;;6.88;;
12435;SDS011;6282;51.440;6.938;2023-05-13T06:36:58;7.40;;;6.63;;
12435;SDS011;6282;51.440;6.938;2023-05-13T06:39:25;9.57;;;6.80;;
12435;SDS011;6282;51.440;6.938;2023-05-13T06:41:52;7.32;;;6.65;;
12435;SDS011;6282;51.440;6.938;2023-05-13T06:44:18;7.00;;;6.30;;
12435;SDS011;6282;51.440;6.938;2023-05-13T06:46:45;6.93;;;6.32;;
12435;SDS011;6282;51.440;6.938;2023-05-13T06:49:12;6.88;;;6.18;;
12435;SDS011;6282;51.440;6.938;2023-05-13T06:51:40;6.50;;;5.75;;
12435;SDS011;6282;51.440;6.938;2023-05-13T06:54:07;7.15;;;6.25;;
12435;SDS011;6282;51.440;6.938;2023-05-13T06:56:34;7.78;;;6.00;;
12435;SDS011;6282;51.440;6.938;2023-05-13T06:59:00;7.15;;;6.45;;
12435;SDS011;6282;51.440;6.938;2023-05-13T07:01:27;6.13;;;5.53;;
12435;SDS011;6282;51.440;6.938;2023-05-13T07:03:54;5.50;;;5.00;;
12435;SDS011;6282;51.440;6.938;2023-05-13T07:06:21;4.85;;;4.43;;
12435;SDS011;6282;51.440;6.938;2023-05-13T07:08:49;5.50;;;4.80;;
12435;SDS011;6282;51.440;6.938;2023-05-13T07:11:17;6.38;;;4.60;;
12435;SDS011;6282;51.440;6.938;2023-05-13T07:13:44;4.40;;;4.00;;
12435;SDS011;6282;51.440;6.938;2023-05-13T07:16:11;4.20;;;3.83;;
12435;SDS011;6282;51.440;6.938;2023-05-13T07:18:38;4.57;;;4.18;;
12435;SDS011;6282;51.440;6.938;2023-05-13T07:21:05;4.20;;;3.78;;
12435;SDS011;6282;51.440;6.938;2023-05-13T07:23:32;4.43;;;4.03;;
12435;SDS011;6282;51.440;6.938;2023-05-13T07:26:01;8.38;;;4.47;;
12435;SDS011;6282;51.440;6.938;2023-05-13T07:28:28;5.03;;;4.00;;
12435;SDS011;6282;51.440;6.938;2023-05-13T07:30:54;4.50;;;4.10;;
12435;SDS011;6282;51.440;6.938;2023-05-13T07:33:21;4.03;;;3.60;;
12435;SDS011;6282;51.440;6.938;2023-05-13T07:35:48;3.88;;;3.58;;
12435;SDS011;6282;51.440;6.938;2023-05-13T07:38:15;4.60;;;4.20;;
12435;SDS011;6282;51.440;6.938;2023-05-13T07:40:42;3.72;;;3.42;;
12435;SDS011;6282;51.440;6.938;2023-05-13T07:43:10;6.30;;;4.10;;
12435;SDS011;6282;51.440;6.938;2023-05-13T07:45:38;6.50;;;4.05;;
12435;SDS011;6282;51.440;6.938;2023-05-13T07:48:06;4.35;;;3.95;;
12435;SDS011;6282;51.440;6.938;2023-05-13T07:50:33;4.15;;;3.70;;
12435;SDS011;6282;51.440;6.938;2023-05-13T07:53:01;4.82;;;4.32;;
12435;SDS011;6282;51.440;6.938;2023-05-13T07:55:28;3.97;;;3.58;;
12435;SDS011;6282;51.440;6.938;2023-05-13T07:57:55;3.53;;;3.22;;
12435;SDS011;6282;51.440;6.938;2023-05-13T08:00:23;3.97;;;3.63;;
12435;SDS011;6282;51.440;6.938;2023-05-13T08:02:50;3.55;;;3.30;;
12435;SDS011;6282;51.440;6.938;2023-05-13T08:05:17;3.97;;;3.65;;
12435;SDS011;6282;51.440;6.938;2023-05-13T08:07:44;3.28;;;2.97;;
12435;SDS011;6282;51.440;6.938;2023-05-13T08:10:11;3.47;;;3.17;;
12435;SDS011;6282;51.440;6.938;2023-05-13T08:12:38;4.32;;;3.05;;
12435;SDS011;6282;51.440;6.938;2023-05-13T08:15:05;4.38;;;3.45;;
12435;SDS011;6282;51.440;6.938;2023-05-13T08:17:34;5.78;;;4.03;;
12435;SDS011;6282;51.440;6.938;2023-05-13T08:20:01;5.53;;;3.72;;
12435;SDS011;6282;51.440;6.938;2023-05-13T08:22:28;3.40;;;3.10;;
12435;SDS011;6282;51.440;6.938;2023-05-13T08:24:55;3.97;;;3.60;;
12435;SDS011;6282;51.440;6.938;2023-05-13T08:27:24;3.25;;;2.97;;
12435;SDS011;6282;51.440;6.938;2023-05-13T08:29:51;2.80;;;2.60;;
12435;SDS011;6282;51.440;6.938;2023-05-13T08:32:18;3.55;;;3.25;;
12435;SDS011;6282;51.440;6.938;2023-05-13T08:34:46;3.20;;;2.90;;
12435;SDS011;6282;51.440;6.938;2023-05-13T08:37:14;3.00;;;2.80;;
12435;SDS011;6282;51.440;6.938;2023-05-13T08:39:41;3.30;;;3.00;;
12435;SDS011;6282;51.440;6.938;2023-05-13T08:42:08;2.95;;;2.58;;
12435;SDS011;6282;51.440;6.938;2023-05-13T08:44:37;4.25;;;3.22;;
12435;SDS011;6282;51.440;6.938;2023-05-13T08:47:07;3.30;;;3.10;;
12435;SDS011;6282;51.440;6.938;2023-05-13T08:49:40;4.03;;;3.05;;
12435;SDS011;6282;51.440;6.938;2023-05-13T08:52:08;4.03;;;2.70;;
12435;SDS011;6282;51.440;6.938;2023-05-13T08:54:35;2.92;;;2.50;;
12435;SDS011;6282;51.440;6.938;2023-05-13T08:57:03;2.90;;;2.67;;
12435;SDS011;6282;51.440;6.938;2023-05-13T08:59:30;2.95;;;2.75;;
12435;SDS011;6282;51.440;6.938;2023-05-13T09:01:57;2.50;;;2.30;;
12435;SDS011;6282;51.440;6.938;2023-05-13T09:04:27;4.47;;;3.10;;
12435;SDS011;6282;51.440;6.938;2023-05-13T09:06:55;2.65;;;2.45;;
12435;SDS011;6282;51.440;6.938;2023-05-13T09:09:23;3.03;;;2.80;;
12435;SDS011;6282;51.440;6.938;2023-05-13T09:11:50;4.90;;;2.72;;
12435;SDS011;6282;51.440;6.938;2023-05-13T09:14:17;2.83;;;2.63;;
12435;SDS011;6282;51.440;6.938;2023-05-13T09:16:44;3.03;;;2.67;;
12435;SDS011;6282;51.440;6.938;2023-05-13T09:19:12;2.75;;;2.55;;
12435;SDS011;6282;51.440;6.938;2023-05-13T09:21:39;2.78;;;2.58;;
12435;SDS011;6282;51.440;6.938;2023-05-13T09:24:07;2.60;;;2.40;;
12435;SDS011;6282;51.440;6.938;2023-05-13T09:26:37;3.53;;;3.20;;
12435;SDS011;6282;51.440;6.938;2023-05-13T09:29:14;4.78;;;2.50;;
12435;SDS011;6282;51.440;6.938;2023-05-13T09:31:46;4.65;;;2.40;;
12435;SDS011;6282;51.440;6.938;2023-05-13T09:34:14;2.88;;;2.30;;
12435;SDS011;6282;51.440;6.938;2023-05-13T09:36:53;3.38;;;2.20;;
12435;SDS011;6282;51.440;6.938;2023-05-13T09:39:21;2.38;;;2.10;;
12435;SDS011;6282;51.440;6.938;2023-05-13T09:41:49;2.65;;;2.45;;
12435;SDS011;6282;51.440;6.938;2023-05-13T09:44:17;2.40;;;2.20;;
12435;SDS011;6282;51.440;6.938;2023-05-13T09:46:44;1.83;;;1.73;;
12435;SDS011;6282;51.440;6.938;2023-05-13T09:49:10;2.25;;;2.05;;
12435;SDS011;6282;51.440;6.938;2023-05-13T09:51:37;2.00;;;1.90;;
12435;SDS011;6282;51.440;6.938;2023-05-13T09:54:05;2.05;;;1.88;;
12435;SDS011;6282;51.440;6.938;2023-05-13T09:56:33;2.30;;;2.10;;
12435;SDS011;6282;51.440;6.938;2023-05-13T09:59:02;2.67;;;2.13;;
12435;SDS011;6282;51.440;6.938;2023-05-13T10:01:29;2.63;;;1.90;;
12435;SDS011;6282;51.440;6.938;2023-05-13T10:03:56;2.33;;;2.10;;
12435;SDS011;6282;51.440;6.938;2023-05-13T10:06:24;2.30;;;2.10;;
12435;SDS011;6282;51.440;6.938;2023-05-13T10:08:53;2.15;;;1.70;;
12435;SDS011;6282;51.440;6.938;2023-05-13T10:11:21;2.30;;;2.10;;
12435;SDS011;6282;51.440;6.938;2023-05-13T10:13:49;3.22;;;1.95;;
12435;SDS011;6282;51.440;6.938;2023-05-13T10:16:27;2.10;;;2.00;;
12435;SDS011;6282;51.440;6.938;2023-05-13T10:18:55;2.15;;;1.88;;
12435;SDS011;6282;51.440;6.938;2023-05-13T10:21:23;2.25;;;2.05;;
12435;SDS011;6282;51.440;6.938;2023-05-13T10:23:51;2.95;;;2.60;;
12435;SDS011;6282;51.440;6.938;2023-05-13T10:26:18;2.05;;;1.95;;
12435;SDS011;6282;51.440;6.938;2023-05-13T10:28:46;1.90;;;1.80;;
12435;SDS011;6282;51.440;6.938;2023-05-13T10:31:13;2.58;;;1.90;;
12435;SDS011;6282;51.440;6.938;2023-05-13T10:33:42;4.53;;;2.20;;
12435;SDS011;6282;51.440;6.938;2023-05-13T10:36:22;2.50;;;2.30;;
12435;SDS011;6282;51.440;6.938;2023-05-13T10:39:15;3.28;;;2.17;;
12435;SDS011;6282;51.440;6.938;2023-05-13T10:44:45;2.13;;;2.00;;
12435;SDS011;6282;51.440;6.938;2023-05-13T10:47:12;3.88;;;2.15;;
12435;SDS011;6282;51.440;6.938;2023-05-13T10:49:45;2.45;;;2.25;;
12435;SDS011;6282;51.440;6.938;2023-05-13T10:52:15;3.70;;;2.40;;
12435;SDS011;6282;51.440;6.938;2023-05-13T10:54:42;2.10;;;1.98;;
12435;SDS011;6282;51.440;6.938;2023-05-13T10:57:26;2.20;;;2.00;;
12435;SDS011;6282;51.440;6.938;2023-05-13T11:00:12;4.03;;;2.40;;
12435;SDS011;6282;51.440;6.938;2023-05-13T11:02:40;2.22;;;2.03;;
12435;SDS011;6282;51.440;6.938;2023-05-13T11:05:12;2.85;;;2.10;;
12435;SDS011;6282;51.440;6.938;2023-05-13T11:07:52;3.22;;;2.05;;
12435;SDS011;6282;51.440;6.938;2023-05-13T11:10:23;2.33;;;2.22;;
12435;SDS011;6282;51.440;6.938;2023-05-13T11:15:45;1.80;;;1.70;;
12435;SDS011;6282;51.440;6.938;2023-05-13T11:18:14;3.70;;;2.10;;
12435;SDS011;6282;51.440;6.938;2023-05-13T11:20:45;3.20;;;2.13;;
12435;SDS011;6282;51.440;6.938;2023-05-13T11:23:15;2.30;;;2.03;;
12435;SDS011;6282;51.440;6.938;2023-05-13T11:25:43;2.78;;;1.92;;
12435;SDS011;6282;51.440;6.938;2023-05-13T11:28:13;2.15;;;2.03;;
12435;SDS011;6282;51.440;6.938;2023-05-13T11:30:51;2.45;;;2.03;;
12435;SDS011;6282;51.440;6.938;2023-05-13T11:33:19;2.90;;;2.10;;
12435;SDS011;6282;51.440;6.938;2023-05-13T11:35:53;2.45;;;1.63;;
12435;SDS011;6282;51.440;6.938;2023-05-13T11:38:21;2.45;;;2.25;;
12435;SDS011;6282;51.440;6.938;2023-05-13T11:40:49;3.35;;;2.20;;
12435;SDS011;6282;51.440;6.938;2023-05-13T11:43:18;3.42;;;2.17;;
12435;SDS011;6282;51.440;6.938;2023-05-13T11:45:46;2.83;;;1.92;;
12435;SDS011;6282;51.440;6.938;2023-05-13T11:48:17;1.92;;;1.83;;
12435;SDS011;6282;51.440;6.938;2023-05-13T11:50:45;2.08;;;1.98;;
12435;SDS011;6282;51.440;6.938;2023-05-13T11:53:17;1.75;;;1.65;;
12435;SDS011;6282;51.440;6.938;2023-05-13T11:55:46;2.65;;;1.70;;
12435;SDS011;6282;51.440;6.938;2023-05-13T11:58:13;3.38;;;2.25;;
12435;SDS011;6282;51.440;6.938;2023-05-13T12:00:40;3.40;;;1.80;;
12435;SDS011;6282;51.440;6.938;2023-05-13T12:03:08;3.83;;;2.10;;
12435;SDS011;6282;51.440;6.938;2023-05-13T12:05:36;2.88;;;2.05;;
12435;SDS011;6282;51.440;6.938;2023-05-13T12:08:03;2.55;;;2.00;;
12435;SDS011;6282;51.440;6.938;2023-05-13T12:10:35;2.08;;;1.85;;
12435;SDS011;6282;51.440;6.938;2023-05-13T12:13:07;3.22;;;1.83;;
12435;SDS011;6282;51.440;6.938;2023-05-13T12:15:34;1.90;;;1.77;;
12435;SDS011;6282;51.440;6.938;2023-05-13T12:18:02;2.03;;;1.80;;
12435;SDS011;6282;51.440;6.938;2023-05-13T12:20:29;2.20;;;2.00;;
12435;SDS011;6282;51.440;6.938;2023-05-13T12:22:56;2.25;;;2.03;;
12435;SDS011;6282;51.440;6.938;2023-05-13T12:25:34;2.38;;;1.88;;
12435;SDS011;6282;51.440;6.938;2023-05-13T12:28:14;1.80;;;1.70;;
12435;SDS011;6282;51.440;6.938;2023-05-13T12:30:43;2.20;;;2.00;;
12435;SDS011;6282;51.440;6.938;2023-05-13T12:33:15;4.22;;;2.00;;
12435;SDS011;6282;51.440;6.938;2023-05-13T12:35:43;2.00;;;1.83;;
12435;SDS011;6282;51.440;6.938;2023-05-13T12:38:13;1.98;;;1.88;;
12435;SDS011;6282;51.440;6.938;2023-05-13T12:40:45;2.08;;;1.88;;
12435;SDS011;6282;51.440;6.938;2023-05-13T12:43:14;2.47;;;2.00;;
12435;SDS011;6282;51.440;6.938;2023-05-13T12:45:43;2.67;;;1.85;;
12435;SDS011;6282;51.440;6.938;2023-05-13T12:48:11;3.35;;;1.88;;
12435;SDS011;6282;51.440;6.938;2023-05-13T12:50:38;2.97;;;1.92;;
12435;SDS011;6282;51.440;6.938;2023-05-13T12:53:05;1.70;;;1.60;;
12435;SDS011;6282;51.440;6.938;2023-05-13T12:55:32;2.65;;;1.85;;
12435;SDS011;6282;51.440;6.938;2023-05-13T12:58:06;1.98;;;1.60;;
12435;SDS011;6282;51.440;6.938;2023-05-13T13:00:36;1.90;;;1.80;;
12435;SDS011;6282;51.440;6.938;2023-05-13T13:03:03;1.88;;;1.67;;
12435;SDS011;6282;51.440;6.938;2023-05-13T13:05:30;2.50;;;1.88;;
12435;SDS011;6282;51.440;6.938;2023-05-13T13:07:57;2.20;;;1.90;;
12435;SDS011;6282;51.440;6.938;2023-05-13T13:10:25;1.55;;;1.40;;
12435;SDS011;6282;51.440;6.938;2023-05-13T13:12:52;3.85;;;1.75;;
12435;SDS011;6282;51.440;6.938;2023-05-13T13:15:20;2.45;;;1.90;;
12435;SDS011;6282;51.440;6.938;2023-05-13T13:17:47;2.10;;;1.90;;
12435;SDS011;6282;51.440;6.938;2023-05-13T13:20:13;2.20;;;2.00;;
12435;SDS011;6282;51.440;6.938;2023-05-13T13:22:41;2.28;;;1.73;;
12435;SDS011;6282;51.440;6.938;2023-05-13T13:25:08;1.67;;;1.58;;
12435;SDS011;6282;51.440;6.938;2023-05-13T13:27:35;2.00;;;1.63;;
12435;SDS011;6282;51.440;6.938;2023-05-13T13:30:02;1.70;;;1.60;;
12435;SDS011;6282;51.440;6.938;2023-05-13T13:32:31;2.15;;;1.60;;
12435;SDS011;6282;51.440;6.938;2023-05-13T13:34:59;1.90;;;1.80;;
12435;SDS011;6282;51.440;6.938;2023-05-13T13:37:27;1.58;;;1.48;;
12435;SDS011;6282;51.440;6.938;2023-05-13T13:39:54;1.63;;;1.52;;
12435;SDS011;6282;51.440;6.938;2023-05-13T13:42:20;2.05;;;1.80;;
12435;SDS011;6282;51.440;6.938;2023-05-13T13:44:47;3.53;;;1.85;;
12435;SDS011;6282;51.440;6.938;2023-05-13T13:47:14;1.90;;;1.80;;
12435;SDS011;6282;51.440;6.938;2023-05-13T13:49:42;1.88;;;1.73;;
12435;SDS011;6282;51.440;6.938;2023-05-13T13:52:09;1.58;;;1.48;;
12435;SDS011;6282;51.440;6.938;2023-05-13T13:54:36;3.03;;;1.83;;
12435;SDS011;6282;51.440;6.938;2023-05-13T13:57:03;1.75;;;1.65;;
12435;SDS011;6282;51.440;6.938;2023-05-13T13:59:30;1.83;;;1.60;;
12435;SDS011;6282;51.440;6.938;2023-05-13T14:01:57;2.08;;;1.88;;
12435;SDS011;6282;51.440;6.938;2023-05-13T14:04:24;2.97;;;1.85;;
12435;SDS011;6282;51.440;6.938;2023-05-13T14:06:54;3.13;;;2.28;;
12435;SDS011;6282;51.440;6.938;2023-05-13T14:09:21;1.98;;;1.80;;
12435;SDS011;6282;51.440;6.938;2023-05-13T14:11:48;2.17;;;1.75;;
12435;SDS011;6282;51.440;6.938;2023-05-13T14:14:14;1.70;;;1.60;;
12435;SDS011;6282;51.440;6.938;2023-05-13T14:16:41;2.80;;;1.60;;
12435;SDS011;6282;51.440;6.938;2023-05-13T14:19:09;2.88;;;1.80;;
12435;SDS011;6282;51.440;6.938;2023-05-13T14:21:36;2.17;;;1.75;;
12435;SDS011;6282;51.440;6.938;2023-05-13T14:24:04;1.90;;;1.80;;
12435;SDS011;6282;51.440;6.938;2023-05-13T14:26:33;1.65;;;1.55;;
12435;SDS011;6282;51.440;6.938;2023-05-13T14:29:00;2.33;;;1.60;;
12435;SDS011;6282;51.440;6.938;2023-05-13T14:31:26;2.22;;;2.05;;
12435;SDS011;6282;51.440;6.938;2023-05-13T14:33:53;2.25;;;1.80;;
12435;SDS011;6282;51.440;6.938;2023-05-13T14:36:20;2.22;;;1.77;;
12435;SDS011;6282;51.440;6.938;2023-05-13T14:38:50;2.58;;;1.73;;
12435;SDS011;6282;51.440;6.938;2023-05-13T14:41:19;2.30;;;1.80;;
12435;SDS011;6282;51.440;6.938;2023-05-13T14:43:47;3.83;;;2.40;;
12435;SDS011;6282;51.440;6.938;2023-05-13T14:46:14;2.17;;;1.98;;
12435;SDS011;6282;51.440;6.938;2023-05-13T14:48:42;2.00;;;1.80;;
12435;SDS011;6282;51.440;6.938;2023-05-13T14:51:09;3.17;;;2.22;;
12435;SDS011;6282;51.440;6.938;2023-05-13T14:53:36;2.25;;;2.05;;
12435;SDS011;6282;51.440;6.938;2023-05-13T14:56:03;2.05;;;1.95;;
12435;SDS011;6282;51.440;6.938;2023-05-13T14:58:32;1.98;;;1.88;;
12435;SDS011;6282;51.440;6.938;2023-05-13T15:00:59;2.13;;;2.03;;
12435;SDS011;6282;51.440;6.938;2023-05-13T15:03:26;2.50;;;2.00;;
12435;SDS011;6282;51.440;6.938;2023-05-13T15:05:53;4.05;;;1.50;;
12435;SDS011;6282;51.440;6.938;2023-05-13T15:08:20;3.13;;;1.92;;
12435;SDS011;6282;51.440;6.938;2023-05-13T15:10:48;2.47;;;2.00;;